Apple Springs, TX

5:55 AM CDT on July 30, 2014 (GMT -0500)
RAWS LUFKIN TX US (MLRWT2) Elev 154 ft | 31.31 °N, 94.83 °W | Change Station

Current weather conditions updated 52 minutes ago

Clear
Clear
73 °F
Feels Like 73 °F
N
0
Wind Variable Wind from North
Gusts 4.0 mph

Today is forecast to be nearly the same temperature as yesterday.

Today
High -- | Low -- °F
--% Chance of Precip.
Yesterday
High -- | Low -- °F
Precip. -- in
6:35 AM 8:16 PM
Waxing Crescent, 11% visible
Pressure 30.04 in
Visibility 10.0 miles
Clouds Clear
Dew Point 73 °F
Humidity 100%
Rainfall 0.00 in
Snow Depth Not available.
UV 0 out of 12
Pollen 3.30 out of 12
Air Quality Not available.
Flu Activity Not available.
METAR KLFK 300953Z AUTO 10004KT 10SM CLR 23/21 A3005 RMK AO2 SLP171 T02330206

More Conditions Fewer Conditions

Pressure 30.04 in
Visibility 10.0 miles
Clouds Clear
Dew Point 73 °F
Humidity 100%
Rainfall 0.00 in
Snow Depth Not available.
UV 0 out of 12
Pollen 3.30 out of 12
Air Quality Not available.
Flu Activity Not available.
METAR KLFK 300953Z AUTO 10004KT 10SM CLR 23/21 A3005 RMK AO2 SLP171 T02330206

More Conditions Fewer Conditions

10-Day Weather Forecast

Almanac

Astronomy

Jul. 30, 2014 Rise Set
Actual Time 6:35 AM CDT 8:16 PM CDT
Civil Twilight 6:08 AM CDT 8:43 PM CDT
Nautical Twilight 5:37 AM CDT 9:15 PM CDT
Astronomical Twilight 5:03 AM CDT 9:48 PM CDT
Moon 9:51 AM CDT 10:18 PM CDT
Length of Visible Light 14h 34m
Length of Day
13h 41m
Tomorrow will be 1m 23s shorter.
Waxing Crescent, 11% of the Moon is Illuminated
Today
Waxing Crescent
Aug 3
First Quarter
Aug 10
Full
Aug 17
Last Quarter
Aug 25
New

Today's Extremes

State Highs State Lows

Community

WunderPhotos

Upload Photos

1,739,037 photos uploaded!

WunderBlogs® & News

Nearby

Snow Depth

Station Depth Elevation
No new snow has been reported.

Earthquake Activity

City Distance Mag. Time & Date
No recent earthquake activity has been reported nearby.
Minimum magnitude displayed is 2.5.

Coastal Water Temperatures

Place Temperature
No Stations Reporting

Nearby Weather Stations

Station Location Temp. Heat Index Dew Point Humidity Wind Precip. Elev Updated Type
RAWS LUFKIN TX, Lufkin, TX 73 °F - 73 °F 100% North  at  0 mph 0.00 in / hr 154 ft 5:03 AM CDT MADIS
MesoWest BURKE , Lufkin, TX 78 °F 76 °F - - North  at  - 0.00 in / hr 271 ft 4:50 AM CDT MADIS
CITY OF HUDSON, Lufkin, TX 73.2 °F - 72 °F 96% SSE  at  1.2 mph 0.00 in / hr 351 ft 5:55 AM CDT Rapid Fire
RAWS RATCLIFF TX, Ratcliff, TX 71 °F - 69 °F 94% ESE  at  1 mph 0.00 in / hr 434 ft 5:02 AM CDT MADIS
MesoWest PROSER , Lufkin, TX 80 °F 78 °F - - North  at  - 0.00 in / hr 254 ft 4:35 AM CDT MADIS
MesoWest CORIGN , Barnum, TX 76 °F 74 °F - - North  at  - 0.00 in / hr 217 ft 3:25 AM CDT MADIS
Huntington, Texas, Huntington, TX 71.9 °F - 68 °F 88% ESE  at  0.0 mph 0.00 in / hr 274 ft 5:41 AM CDT Normal

Show More Stations Show Fewer Stations